createdAt,value
2019-04-29T00:02:24.755Z,6.70
2019-04-29T00:04:53.274Z,6.70
2019-04-29T00:07:21.878Z,6.70
2019-04-29T00:09:50.358Z,6.70
2019-04-29T00:12:19.470Z,6.70
2019-04-29T00:14:55.716Z,6.70
2019-04-29T00:17:34.934Z,6.70
2019-04-29T00:20:09.555Z,6.80
2019-04-29T00:22:38.066Z,6.70
2019-04-29T00:25:06.755Z,6.80
2019-04-29T00:27:35.406Z,6.80
2019-04-29T00:30:08.131Z,6.80
2019-04-29T00:32:37.506Z,6.80
2019-04-29T00:35:07.794Z,6.70
2019-04-29T00:37:46.973Z,6.70
2019-04-29T00:40:33.441Z,6.70
2019-04-29T00:43:15.323Z,6.70
2019-04-29T00:45:44.027Z,6.70
2019-04-29T00:48:12.610Z,6.70
2019-04-29T00:50:41.153Z,6.70
2019-04-29T00:53:09.705Z,6.60
2019-04-29T00:55:38.301Z,6.60
2019-04-29T00:58:06.851Z,6.60
2019-04-29T01:00:40.578Z,6.60
2019-04-29T01:03:09.331Z,6.60
2019-04-29T01:05:37.986Z,6.70
2019-04-29T01:08:06.775Z,6.60
2019-04-29T01:10:35.363Z,6.60
2019-04-29T01:13:04.138Z,6.60
2019-04-29T01:15:32.837Z,6.70
2019-04-29T01:18:01.410Z,6.60
2019-04-29T01:20:29.964Z,6.70
2019-04-29T01:22:58.505Z,6.70
2019-04-29T01:25:27.101Z,6.60
2019-04-29T01:27:57.876Z,6.60
2019-04-29T01:30:41.485Z,6.60
2019-04-29T01:33:10.080Z,6.60
2019-04-29T01:35:39.555Z,6.60
2019-04-29T01:38:08.108Z,6.60
2019-04-29T01:40:54.640Z,6.60
2019-04-29T01:43:23.386Z,6.50
2019-04-29T01:45:51.934Z,6.50
2019-04-29T01:48:20.526Z,6.60
2019-04-29T01:50:49.076Z,6.50
2019-04-29T01:53:17.623Z,6.60
2019-04-29T01:55:46.292Z,6.50
2019-04-29T01:58:14.914Z,6.50
2019-04-29T02:00:43.488Z,6.50
2019-04-29T02:03:12.059Z,6.50
2019-04-29T02:05:40.600Z,6.50
2019-04-29T02:08:09.078Z,6.50
2019-04-29T02:10:38.153Z,6.50
2019-04-29T02:13:06.700Z,6.40
2019-04-29T02:15:35.201Z,6.50
2019-04-29T02:18:03.863Z,6.50
2019-04-29T02:20:32.408Z,6.40
2019-04-29T02:23:02.593Z,6.40
2019-04-29T02:25:32.840Z,6.40
2019-04-29T02:28:01.393Z,6.40
2019-04-29T02:30:33.032Z,6.40
2019-04-29T02:33:01.602Z,6.40
2019-04-29T02:35:30.135Z,6.40
2019-04-29T02:37:58.710Z,6.40
2019-04-29T02:40:29.669Z,6.40
2019-04-29T02:42:59.866Z,6.40
2019-04-29T02:45:30.066Z,6.40
2019-04-29T02:47:58.640Z,6.40
2019-04-29T02:50:27.225Z,6.40
2019-04-29T02:52:55.935Z,6.40
2019-04-29T02:55:29.023Z,6.40
2019-04-29T02:58:04.987Z,6.40
2019-04-29T03:00:35.125Z,6.40
2019-04-29T03:03:08.340Z,6.40
2019-04-29T03:05:41.361Z,6.40
2019-04-29T03:08:09.884Z,6.40
2019-04-29T03:10:38.482Z,6.40
2019-04-29T03:13:07.163Z,6.40
2019-04-29T03:15:38.726Z,6.40
2019-04-29T03:18:07.335Z,6.40
2019-04-29T03:20:40.427Z,6.40
2019-04-29T03:23:10.628Z,6.40
2019-04-29T03:25:58.647Z,6.40
2019-04-29T03:28:27.194Z,6.40
2019-04-29T03:30:56.226Z,6.40
2019-04-29T03:33:24.891Z,6.40
2019-04-29T03:35:53.469Z,6.40
2019-04-29T03:38:22.113Z,6.50
2019-04-29T03:40:50.757Z,6.40
2019-04-29T03:43:19.298Z,6.50
2019-04-29T03:45:47.843Z,6.40
2019-04-29T03:48:16.445Z,6.50
2019-04-29T03:50:44.981Z,6.50
2019-04-29T03:53:13.554Z,6.50
2019-04-29T03:55:42.137Z,6.50
2019-04-29T03:58:10.692Z,6.60
2019-04-29T04:00:43.592Z,6.60
2019-04-29T04:03:11.198Z,6.60
2019-04-29T04:05:41.378Z,6.60
2019-04-29T04:08:17.517Z,6.60
2019-04-29T04:10:46.114Z,6.70
2019-04-29T04:13:14.640Z,6.70
2019-04-29T04:15:43.220Z,6.60
2019-04-29T04:18:13.466Z,6.60
2019-04-29T04:20:42.008Z,6.70
2019-04-29T04:23:10.611Z,6.70
2019-04-29T04:25:39.230Z,6.70
2019-04-29T04:28:07.744Z,6.70
2019-04-29T04:30:36.286Z,6.70
2019-04-29T04:33:04.945Z,6.70
2019-04-29T04:35:33.584Z,6.80
2019-04-29T04:38:02.199Z,6.80
2019-04-29T04:40:32.501Z,6.80
2019-04-29T04:43:01.052Z,6.90
2019-04-29T04:45:29.787Z,6.90
2019-04-29T04:47:58.370Z,6.90
2019-04-29T04:50:26.983Z,6.90
2019-04-29T04:52:55.539Z,7.00
2019-04-29T04:55:25.832Z,7.00
2019-04-29T04:57:54.334Z,7.00
2019-04-29T05:00:24.884Z,7.00
2019-04-29T05:02:53.461Z,7.00
2019-04-29T05:05:21.963Z,7.00
2019-04-29T05:07:50.513Z,7.00
2019-04-29T05:10:19.086Z,7.10
2019-04-29T05:12:47.698Z,7.00
2019-04-29T05:15:16.413Z,7.00
2019-04-29T05:17:45.078Z,7.10
2019-04-29T05:20:13.733Z,7.10
2019-04-29T05:22:43.997Z,7.10
2019-04-29T05:25:12.909Z,7.10
2019-04-29T05:27:41.458Z,7.10
2019-04-29T05:30:10.358Z,7.20
2019-04-29T05:32:38.947Z,7.10
2019-04-29T05:35:09.388Z,7.20
2019-04-29T05:37:39.581Z,7.20
2019-04-29T05:40:08.503Z,7.20
2019-04-29T05:42:37.071Z,7.20
2019-04-29T05:45:29.533Z,7.30
2019-04-29T05:47:59.645Z,7.30
2019-04-29T05:50:29.834Z,7.30
2019-04-29T05:53:11.421Z,7.40
2019-04-29T05:55:40.404Z,7.30
2019-04-29T05:58:11.791Z,7.40
2019-04-29T06:00:42.597Z,7.40
2019-04-29T06:03:11.138Z,7.40
2019-04-29T06:05:39.814Z,7.50
2019-04-29T06:08:08.381Z,7.40
2019-04-29T06:10:37.049Z,7.50
2019-04-29T06:13:05.666Z,7.50
2019-04-29T06:15:34.346Z,7.50
2019-04-29T06:18:02.897Z,7.60
2019-04-29T06:20:31.443Z,7.60
2019-04-29T06:23:00.111Z,7.60
2019-04-29T06:25:28.653Z,7.70
2019-04-29T06:27:57.484Z,7.70
2019-04-29T06:30:26.145Z,7.70
2019-04-29T06:32:55.103Z,7.80
2019-04-29T06:35:23.765Z,7.90
2019-04-29T06:37:52.419Z,7.90
2019-04-29T06:40:20.972Z,8.00
2019-04-29T06:42:53.266Z,8.20
2019-04-29T06:45:19.913Z,8.20
2019-04-29T06:47:48.461Z,8.30
2019-04-29T06:50:17.368Z,8.50
2019-04-29T06:52:45.958Z,8.60
2019-04-29T06:55:18.714Z,8.60
2019-04-29T06:57:47.324Z,8.70
2019-04-29T07:00:17.600Z,8.70
2019-04-29T07:02:49.895Z,8.70
2019-04-29T07:05:16.568Z,8.60
2019-04-29T07:07:45.191Z,8.50
2019-04-29T07:10:16.534Z,8.50
2019-04-29T07:12:47.634Z,8.40
2019-04-29T07:15:17.278Z,8.40
2019-04-29T07:17:45.844Z,8.40
2019-04-29T07:20:14.580Z,8.40
2019-04-29T07:22:43.109Z,8.40
2019-04-29T07:25:11.737Z,8.40
2019-04-29T07:27:43.360Z,8.40
2019-04-29T07:30:11.254Z,8.30
2019-04-29T07:32:42.114Z,8.30
2019-04-29T07:35:11.473Z,8.40
2019-04-29T07:37:40.216Z,8.40
2019-04-29T07:40:09.486Z,8.40
2019-04-29T07:42:38.385Z,8.50
2019-04-29T07:45:29.181Z,8.50
2019-04-29T07:48:01.631Z,8.60
2019-04-29T07:50:28.586Z,8.60
2019-04-29T07:52:57.295Z,8.70
2019-04-29T07:55:30.641Z,8.80
2019-04-29T07:57:56.250Z,8.90
2019-04-29T08:00:33.621Z,8.90
2019-04-29T08:03:03.835Z,8.90
2019-04-29T08:05:32.802Z,8.70
2019-04-29T08:08:01.715Z,8.80
2019-04-29T08:10:30.261Z,8.80
2019-04-29T08:13:00.085Z,8.90
2019-04-29T08:15:31.725Z,9.10
2019-04-29T08:18:06.303Z,9.20
2019-04-29T08:20:29.659Z,9.30
2019-04-29T08:22:58.458Z,9.30
2019-04-29T08:25:28.496Z,9.30
2019-04-29T08:27:57.088Z,9.20
2019-04-29T08:30:25.828Z,9.30
2019-04-29T08:32:54.321Z,9.30
2019-04-29T08:35:22.870Z,9.40
2019-04-29T08:37:52.253Z,9.40
2019-04-29T08:40:20.965Z,9.40
2019-04-29T08:43:07.581Z,9.40
2019-04-29T08:45:40.550Z,9.30
2019-04-29T08:48:09.371Z,9.30
2019-04-29T08:50:38.035Z,9.20
2019-04-29T08:53:06.946Z,9.30
2019-04-29T08:55:36.515Z,9.30
2019-04-29T08:58:06.984Z,9.30
2019-04-29T09:00:36.204Z,9.40
2019-04-29T09:03:05.548Z,9.40
2019-04-29T09:05:34.209Z,9.40
2019-04-29T09:08:02.753Z,9.50
2019-04-29T09:10:33.071Z,9.50
2019-04-29T09:13:01.608Z,9.50
2019-04-29T09:15:30.643Z,9.40
2019-04-29T09:17:59.264Z,9.30
2019-04-29T09:20:27.893Z,9.40
2019-04-29T09:23:10.200Z,9.40
2019-04-29T09:25:43.896Z,9.40
2019-04-29T09:28:22.523Z,9.50
2019-04-29T09:30:47.283Z,9.50
2019-04-29T09:33:15.968Z,9.60
2019-04-29T09:35:44.640Z,9.70
2019-04-29T09:38:13.645Z,9.80
2019-04-29T09:40:46.583Z,9.70
2019-04-29T09:43:16.919Z,9.50
2019-04-29T09:45:47.327Z,9.60
2019-04-29T09:48:15.907Z,9.70
2019-04-29T09:50:44.499Z,9.80
2019-04-29T09:53:13.178Z,9.80
2019-04-29T09:55:41.713Z,9.90
2019-04-29T09:58:10.374Z,9.90
2019-04-29T10:00:43.126Z,9.90
2019-04-29T10:03:13.326Z,10.00
2019-04-29T10:05:46.335Z,10.10
2019-04-29T10:08:15.743Z,9.90
2019-04-29T10:10:45.151Z,10.00
2019-04-29T10:13:13.814Z,10.10
2019-04-29T10:16:02.062Z,10.10
2019-04-29T10:18:35.490Z,10.10
2019-04-29T10:21:05.747Z,10.00
2019-04-29T10:23:35.219Z,9.90
2019-04-29T10:26:03.726Z,9.80
2019-04-29T10:28:33.643Z,9.90
2019-04-29T10:31:03.906Z,10.00
2019-04-29T10:33:32.501Z,10.00
2019-04-29T10:36:01.068Z,10.00
2019-04-29T10:38:29.629Z,10.00
2019-04-29T10:41:00.709Z,9.90
2019-04-29T10:43:32.108Z,9.80
2019-04-29T10:46:19.186Z,9.90
2019-04-29T10:48:52.230Z,10.00
2019-04-29T10:51:23.279Z,10.00
2019-04-29T10:53:52.725Z,10.10
2019-04-29T10:56:21.566Z,10.10
2019-04-29T10:58:50.260Z,10.10
2019-04-29T11:01:29.603Z,10.20
2019-04-29T11:04:00.767Z,10.10
2019-04-29T11:06:31.439Z,10.10
2019-04-29T11:09:01.040Z,10.10
2019-04-29T11:11:32.730Z,10.10
2019-04-29T11:14:03.194Z,10.00
2019-04-29T11:16:46.157Z,10.00
2019-04-29T11:19:05.374Z,10.00
2019-04-29T11:21:33.658Z,10.00
2019-04-29T11:24:13.011Z,10.00
2019-04-29T11:26:44.823Z,10.10
2019-04-29T11:29:13.681Z,10.10
2019-04-29T11:31:42.483Z,10.00
2019-04-29T11:34:17.810Z,9.80
2019-04-29T11:36:46.280Z,9.90
2019-04-29T11:39:16.258Z,9.90
2019-04-29T11:41:44.947Z,9.80
2019-04-29T11:44:13.698Z,9.80
2019-04-29T11:46:44.566Z,9.90
2019-04-29T11:49:14.113Z,9.80
2019-04-29T11:52:07.638Z,9.80
2019-04-29T11:54:18.410Z,9.80
2019-04-29T11:56:47.145Z,9.90
2019-04-29T11:59:29.434Z,10.00
2019-04-29T12:02:02.508Z,10.10
2019-04-29T12:04:42.338Z,10.20
2019-04-29T12:07:11.186Z,10.20
2019-04-29T12:09:39.854Z,10.10
2019-04-29T12:12:12.861Z,10.10
2019-04-29T12:14:42.029Z,10.00
2019-04-29T12:17:19.324Z,10.00
2019-04-29T12:19:49.633Z,10.10
2019-04-29T12:22:28.245Z,10.20
2019-04-29T12:24:48.846Z,10.10
2019-04-29T12:27:19.938Z,10.10
2019-04-29T12:29:48.841Z,9.90
2019-04-29T12:32:26.673Z,9.90
2019-04-29T12:35:16.711Z,9.80
2019-04-29T12:37:47.876Z,9.90
2019-04-29T12:40:34.241Z,9.90
2019-04-29T12:43:11.253Z,9.90
2019-04-29T12:45:39.755Z,9.90
2019-04-29T12:48:08.539Z,10.00
2019-04-29T12:50:37.158Z,10.00
2019-04-29T12:53:05.919Z,10.00
2019-04-29T12:55:45.021Z,9.90
2019-04-29T12:58:08.803Z,9.90
2019-04-29T13:00:47.442Z,9.90
2019-04-29T13:03:16.768Z,10.00
2019-04-29T13:06:03.527Z,10.00
2019-04-29T13:08:42.945Z,10.00
2019-04-29T13:11:14.789Z,10.10
2019-04-29T13:13:41.893Z,10.20
2019-04-29T13:16:21.792Z,10.20
2019-04-29T13:19:11.388Z,10.20
2019-04-29T13:21:34.651Z,10.20
2019-04-29T13:24:13.549Z,10.30
2019-04-29T13:26:37.403Z,10.20
2019-04-29T13:29:04.794Z,10.30
2019-04-29T13:31:38.536Z,10.20
2019-04-29T13:34:34.619Z,10.20
2019-04-29T13:36:35.794Z,10.20
2019-04-29T13:39:08.219Z,10.20
2019-04-29T13:41:55.561Z,10.20
2019-04-29T13:44:07.676Z,10.30
2019-04-29T13:46:40.852Z,10.30
2019-04-29T13:49:25.590Z,10.30
2019-04-29T13:51:55.961Z,10.30
2019-04-29T13:54:24.486Z,10.40
2019-04-29T13:56:56.409Z,10.40
2019-04-29T13:59:31.443Z,10.40
2019-04-29T14:02:06.919Z,10.20
2019-04-29T14:04:47.783Z,10.10
2019-04-29T14:07:18.269Z,10.10
2019-04-29T14:09:47.902Z,10.10
2019-04-29T14:12:46.990Z,9.90
2019-04-29T14:14:47.515Z,10.00
2019-04-29T14:17:25.964Z,9.90
2019-04-29T14:19:46.414Z,9.80
2019-04-29T14:22:22.016Z,9.70
2019-04-29T14:24:46.983Z,9.60
2019-04-29T14:27:24.471Z,9.60
2019-04-29T14:29:46.176Z,9.70
2019-04-29T14:32:18.143Z,9.70
2019-04-29T14:34:46.624Z,9.70
2019-04-29T14:37:21.576Z,9.70
2019-04-29T14:39:45.458Z,9.70
2019-04-29T14:42:25.765Z,9.70
2019-04-29T14:44:59.311Z,9.80
2019-04-29T14:47:38.564Z,9.70
2019-04-29T14:50:15.682Z,9.70
2019-04-29T14:52:44.678Z,9.70
2019-04-29T14:55:14.947Z,9.70
2019-04-29T14:57:43.282Z,9.70
2019-04-29T15:00:20.175Z,9.60
2019-04-29T15:02:48.954Z,9.60
2019-04-29T15:05:17.912Z,9.60
2019-04-29T15:07:46.707Z,9.50
2019-04-29T15:10:15.663Z,9.50
2019-04-29T15:13:11.451Z,9.60
2019-04-29T15:15:34.118Z,9.60
2019-04-29T15:18:02.222Z,9.60
2019-04-29T15:20:44.525Z,9.70
2019-04-29T15:23:13.089Z,9.60
2019-04-29T15:25:41.635Z,9.70
2019-04-29T15:28:10.302Z,9.80
2019-04-29T15:30:39.041Z,9.70
2019-04-29T15:33:07.580Z,9.70
2019-04-29T15:35:36.383Z,9.80
2019-04-29T15:38:05.063Z,9.70
2019-04-29T15:40:33.640Z,9.70
2019-04-29T15:43:02.322Z,9.70
2019-04-29T15:45:32.563Z,9.70
2019-04-29T15:48:01.158Z,9.70
2019-04-29T15:50:32.602Z,9.60
2019-04-29T15:53:02.963Z,9.70
2019-04-29T15:55:30.577Z,9.60
2019-04-29T15:57:59.351Z,9.70
2019-04-29T16:00:36.696Z,9.70
2019-04-29T16:02:58.239Z,9.60
2019-04-29T16:05:54.207Z,9.60
2019-04-29T16:08:12.313Z,9.60
2019-04-29T16:10:59.262Z,9.50
2019-04-29T16:13:29.427Z,9.50
2019-04-29T16:15:58.031Z,9.50
2019-04-29T16:18:26.673Z,9.60
2019-04-29T16:20:55.214Z,9.60
2019-04-29T16:23:24.203Z,9.60
2019-04-29T16:25:54.406Z,9.50
2019-04-29T16:28:24.340Z,9.50
2019-04-29T16:30:53.380Z,9.40
2019-04-29T16:33:21.939Z,9.40
2019-04-29T16:35:50.630Z,9.40
2019-04-29T16:38:19.787Z,9.40
2019-04-29T16:41:12.455Z,9.50
2019-04-29T16:43:43.644Z,9.50
2019-04-29T16:46:23.457Z,9.40
2019-04-29T16:48:51.172Z,9.40
2019-04-29T16:51:19.806Z,9.50
2019-04-29T16:53:48.396Z,9.50
2019-04-29T16:56:16.931Z,9.40
2019-04-29T16:58:45.548Z,9.40
2019-04-29T17:01:14.479Z,9.40
2019-04-29T17:03:43.427Z,9.30
2019-04-29T17:06:12.204Z,9.30
2019-04-29T17:09:04.961Z,9.30
2019-04-29T17:11:35.499Z,9.20
2019-04-29T17:14:12.491Z,9.20
2019-04-29T17:16:34.607Z,9.20
2019-04-29T17:19:03.244Z,9.10
2019-04-29T17:21:32.403Z,9.20
2019-04-29T17:24:01.026Z,9.10
2019-04-29T17:26:31.178Z,9.10
2019-04-29T17:29:37.817Z,9.10
2019-04-29T17:32:04.238Z,9.10
2019-04-29T17:34:56.687Z,9.10
2019-04-29T17:37:06.378Z,9.10
2019-04-29T17:39:35.786Z,9.10
2019-04-29T17:42:04.481Z,9.00
2019-04-29T17:44:40.645Z,9.00
2019-04-29T17:47:13.782Z,9.00
2019-04-29T17:49:47.288Z,9.00
2019-04-29T17:52:17.935Z,9.00
2019-04-29T17:54:48.576Z,8.80
2019-04-29T17:57:28.317Z,8.90
2019-04-29T18:00:00.509Z,8.80
2019-04-29T18:02:28.621Z,8.80
2019-04-29T18:05:01.925Z,8.80
2019-04-29T18:07:35.376Z,8.80
2019-04-29T18:10:17.638Z,8.80
2019-04-29T18:12:47.164Z,8.70
2019-04-29T18:15:20.179Z,8.70
2019-04-29T18:17:50.761Z,8.70
2019-04-29T18:20:33.515Z,8.70
2019-04-29T18:23:11.097Z,8.80
2019-04-29T18:25:39.599Z,8.80
2019-04-29T18:28:08.758Z,8.70
2019-04-29T18:30:38.482Z,8.80
2019-04-29T18:33:07.437Z,8.70
2019-04-29T18:35:36.216Z,8.70
2019-04-29T18:38:07.555Z,8.70
2019-04-29T18:40:41.863Z,8.70
2019-04-29T18:43:07.643Z,8.70
2019-04-29T18:45:36.811Z,8.70
2019-04-29T18:48:09.100Z,8.60
2019-04-29T18:50:38.846Z,8.60
2019-04-29T18:53:06.945Z,8.70
2019-04-29T18:55:35.825Z,8.80
2019-04-29T18:58:05.787Z,8.70
2019-04-29T19:00:34.862Z,8.70
2019-04-29T19:03:06.472Z,8.70
2019-04-29T19:05:45.902Z,8.70
2019-04-29T19:08:19.375Z,8.70
2019-04-29T19:10:52.351Z,8.60
2019-04-29T19:13:21.370Z,8.70
2019-04-29T19:15:50.255Z,8.70
2019-04-29T19:18:21.038Z,8.70
2019-04-29T19:20:52.814Z,8.70
2019-04-29T19:23:22.296Z,8.70
2019-04-29T19:25:50.003Z,8.70
2019-04-29T19:28:29.467Z,8.70
2019-04-29T19:30:49.851Z,8.70
2019-04-29T19:33:18.586Z,8.70
2019-04-29T19:35:47.391Z,8.70
2019-04-29T19:38:16.530Z,8.70
2019-04-29T19:40:45.134Z,8.80
2019-04-29T19:43:15.385Z,8.70
2019-04-29T19:45:48.852Z,8.70
2019-04-29T19:48:17.195Z,8.70
2019-04-29T19:50:51.693Z,8.80
2019-04-29T19:53:16.755Z,8.80
2019-04-29T19:55:45.722Z,8.80
2019-04-29T19:58:34.253Z,8.80
2019-04-29T20:01:11.545Z,8.80
2019-04-29T20:03:37.455Z,8.80
2019-04-29T20:06:21.100Z,8.90
2019-04-29T20:08:53.477Z,8.90
2019-04-29T20:11:14.349Z,8.80
2019-04-29T20:13:42.242Z,8.80
2019-04-29T20:16:42.930Z,8.80
2019-04-29T20:19:18.064Z,8.70
2019-04-29T20:21:42.964Z,8.70
2019-04-29T20:24:15.610Z,8.70
2019-04-29T20:26:44.247Z,8.70
2019-04-29T20:29:12.456Z,8.70
2019-04-29T20:32:00.402Z,8.70
2019-04-29T20:34:29.413Z,8.70
2019-04-29T20:36:58.252Z,8.80
2019-04-29T20:39:27.244Z,8.80
2019-04-29T20:41:56.343Z,8.70
2019-04-29T20:44:25.302Z,8.70
2019-04-29T20:47:14.210Z,8.70
2019-04-29T20:49:26.293Z,8.80
2019-04-29T20:51:56.803Z,8.60
2019-04-29T20:54:36.284Z,8.70
2019-04-29T20:57:12.568Z,8.60
2019-04-29T20:59:35.946Z,8.60
2019-04-29T21:02:12.644Z,8.50
2019-04-29T21:04:45.739Z,8.50
2019-04-29T21:07:07.253Z,8.50
2019-04-29T21:09:35.973Z,8.40
2019-04-29T21:12:21.495Z,8.40
2019-04-29T21:14:59.518Z,8.40
2019-04-29T21:17:31.649Z,8.40
2019-04-29T21:19:58.518Z,8.40
2019-04-29T21:22:27.334Z,8.50
2019-04-29T21:24:55.913Z,8.40
2019-04-29T21:27:26.033Z,8.50
2019-04-29T21:29:56.443Z,8.40
2019-04-29T21:32:25.780Z,8.40
2019-04-29T21:35:05.752Z,8.40
2019-04-29T21:37:40.104Z,8.40
2019-04-29T21:40:14.843Z,8.40
2019-04-29T21:42:47.123Z,8.40
2019-04-29T21:45:17.498Z,8.40
2019-04-29T21:47:52.925Z,8.30
2019-04-29T21:50:17.554Z,8.30
2019-04-29T21:52:46.860Z,8.30
2019-04-29T21:55:16.085Z,8.30
2019-04-29T21:57:45.358Z,8.30
2019-04-29T22:00:19.685Z,8.30
2019-04-29T22:02:48.396Z,8.30
2019-04-29T22:05:18.400Z,8.30
2019-04-29T22:07:47.555Z,8.20
2019-04-29T22:10:19.973Z,8.20
2019-04-29T22:12:50.966Z,8.20
2019-04-29T22:15:29.251Z,8.20
2019-04-29T22:17:56.196Z,8.20
2019-04-29T22:20:18.186Z,8.20
2019-04-29T22:22:47.791Z,8.10
2019-04-29T22:25:16.684Z,8.20
2019-04-29T22:28:05.109Z,8.20
2019-04-29T22:30:35.411Z,8.10
2019-04-29T22:33:05.212Z,8.10
2019-04-29T22:35:37.218Z,8.10
2019-04-29T22:38:07.733Z,8.10
2019-04-29T22:40:41.063Z,8.10
2019-04-29T22:43:10.207Z,8.10
2019-04-29T22:45:39.026Z,8.10
2019-04-29T22:48:16.503Z,8.10
2019-04-29T22:50:39.459Z,8.10
2019-04-29T22:53:09.130Z,8.10
2019-04-29T22:55:39.016Z,8.20
2019-04-29T22:58:09.751Z,8.10
2019-04-29T23:00:38.169Z,8.10
2019-04-29T23:03:06.808Z,8.00
2019-04-29T23:05:35.949Z,8.10
2019-04-29T23:08:05.758Z,8.00
2019-04-29T23:10:35.669Z,8.10
2019-04-29T23:13:06.244Z,8.10
2019-04-29T23:15:35.704Z,8.10
2019-04-29T23:18:06.344Z,8.10
2019-04-29T23:20:36.538Z,8.00
2019-04-29T23:23:07.643Z,8.10
2019-04-29T23:25:53.315Z,8.00
2019-04-29T23:28:26.915Z,8.10
2019-04-29T23:30:53.815Z,8.00
2019-04-29T23:33:23.956Z,8.00
2019-04-29T23:35:52.798Z,8.10
2019-04-29T23:38:22.303Z,8.10
2019-04-29T23:40:54.510Z,8.00
2019-04-29T23:43:25.299Z,8.10
2019-04-29T23:45:51.810Z,8.10
2019-04-29T23:48:23.821Z,8.10
2019-04-29T23:50:54.706Z,8.10
2019-04-29T23:53:25.236Z,8.10
2019-04-29T23:55:52.463Z,8.20
2019-04-29T23:58:37.172Z,8.20
